createdAt,value
2022-11-15T00:00:13.995Z,7.2
2022-11-15T00:01:22.364Z,7.2
2022-11-15T00:02:30.749Z,7.2
2022-11-15T00:03:39.237Z,6.5
2022-11-15T00:04:47.584Z,6.5
2022-11-15T00:05:55.985Z,6.5
2022-11-15T00:07:04.509Z,6
2022-11-15T00:08:12.946Z,6
2022-11-15T00:09:21.197Z,6
2022-11-15T00:10:29.744Z,6
2022-11-15T00:11:38.109Z,6
2022-11-15T00:12:46.460Z,6
2022-11-15T00:13:55.054Z,5.2
2022-11-15T00:15:03.394Z,5.2
2022-11-15T00:16:11.720Z,5.2
2022-11-15T00:17:20.304Z,6.8
2022-11-15T00:18:28.643Z,6.8
2022-11-15T00:19:37.003Z,6.8
2022-11-15T00:20:45.546Z,7
2022-11-15T00:21:53.913Z,7
2022-11-15T00:23:02.262Z,7
2022-11-15T00:24:10.800Z,7.9
2022-11-15T00:25:19.146Z,7.9
2022-11-15T00:26:27.536Z,7.9
2022-11-15T00:27:36.071Z,7.4
2022-11-15T00:28:44.422Z,7.4
2022-11-15T00:29:52.785Z,7.4
2022-11-15T00:31:01.331Z,5.8
2022-11-15T00:32:09.685Z,5.8
2022-11-15T00:33:18.045Z,5.8
2022-11-15T00:34:26.607Z,6.7
2022-11-15T00:35:34.938Z,6.7
2022-11-15T00:36:43.278Z,6.7
2022-11-15T00:37:52.004Z,6.2
2022-11-15T00:39:00.191Z,6.2
2022-11-15T00:40:08.575Z,6.2
2022-11-15T00:41:17.108Z,8.2
2022-11-15T00:42:25.455Z,8.2
2022-11-15T00:43:34.031Z,8.2
2022-11-15T00:44:42.375Z,5.4
2022-11-15T00:45:50.741Z,5.4
2022-11-15T00:46:59.076Z,5.4
2022-11-15T00:48:07.632Z,6.8
2022-11-15T00:49:15.967Z,6.8
2022-11-15T00:50:24.327Z,6.8
2022-11-15T00:51:32.865Z,8.3
2022-11-15T00:52:41.238Z,8.3
2022-11-15T00:53:49.607Z,8.3
2022-11-15T00:54:58.146Z,6.2
2022-11-15T00:56:06.483Z,6.2
2022-11-15T00:57:14.815Z,6.2
2022-11-15T00:58:23.378Z,5.1
2022-11-15T00:59:31.745Z,5.1
2022-11-15T01:00:40.162Z,5.1
2022-11-15T01:01:48.668Z,7
2022-11-15T01:02:57.027Z,7
2022-11-15T01:04:05.359Z,7
2022-11-15T01:05:13.917Z,6
2022-11-15T01:06:22.248Z,6
2022-11-15T01:07:30.665Z,6
2022-11-15T01:08:39.156Z,6.3
2022-11-15T01:09:47.554Z,6.3
2022-11-15T01:10:55.874Z,6.3
2022-11-15T01:12:04.411Z,4.7
2022-11-15T01:13:12.786Z,4.7
2022-11-15T01:14:25.176Z,4.7
2022-11-15T01:15:29.682Z,5.5
2022-11-15T01:16:38.014Z,5.5
2022-11-15T01:17:46.359Z,5.5
2022-11-15T01:18:54.903Z,5.7
2022-11-15T01:20:03.257Z,5.7
2022-11-15T01:21:11.597Z,5.7
2022-11-15T01:22:20.177Z,6
2022-11-15T01:23:28.623Z,6
2022-11-15T01:24:36.896Z,6
2022-11-15T01:25:45.455Z,5.6
2022-11-15T01:26:53.773Z,5.6
2022-11-15T01:28:02.130Z,5.6
2022-11-15T01:29:10.673Z,4.9
2022-11-15T01:30:19.011Z,4.9
2022-11-15T01:31:27.343Z,4.9
2022-11-15T01:32:35.914Z,7.3
2022-11-15T01:33:44.248Z,7.3
2022-11-15T01:34:52.643Z,7.3
2022-11-15T01:36:01.162Z,5.3
2022-11-15T01:37:09.494Z,5.3
2022-11-15T01:38:17.871Z,5.3
2022-11-15T01:39:26.414Z,5.4
2022-11-15T01:40:34.775Z,5.4
2022-11-15T01:41:43.132Z,5.4
2022-11-15T01:42:51.665Z,6.3
2022-11-15T01:44:00.052Z,6.3
2022-11-15T01:45:08.422Z,6.3
2022-11-15T01:46:16.958Z,5.7
2022-11-15T01:47:25.299Z,5.7
2022-11-15T01:48:33.628Z,5.7
2022-11-15T01:49:42.190Z,6.6
2022-11-15T01:50:50.544Z,6.6
2022-11-15T01:51:58.884Z,6.6
2022-11-15T01:53:07.448Z,5.9
2022-11-15T01:54:15.799Z,5.9
2022-11-15T01:55:24.146Z,5.9
2022-11-15T01:56:32.715Z,6
2022-11-15T01:57:41.086Z,6
2022-11-15T01:58:49.424Z,6
2022-11-15T01:59:57.966Z,4.8
2022-11-15T02:01:06.356Z,4.8
2022-11-15T02:02:14.652Z,4.8
2022-11-15T02:03:23.205Z,5.8
2022-11-15T02:04:31.543Z,5.8
2022-11-15T02:05:39.886Z,5.8
2022-11-15T02:06:48.491Z,6.1
2022-11-15T02:07:56.800Z,6.1
2022-11-15T02:09:05.162Z,6.1
2022-11-15T02:10:13.711Z,4.8
2022-11-15T02:11:22.070Z,4.8
2022-11-15T02:12:32.415Z,4.8
2022-11-15T02:13:38.978Z,4.5
2022-11-15T02:14:47.314Z,4.5
2022-11-15T02:15:59.074Z,4.5
2022-11-15T02:17:04.233Z,5.5
2022-11-15T02:18:12.540Z,5.5
2022-11-15T02:19:20.893Z,5.5
2022-11-15T02:20:29.434Z,4.9
2022-11-15T02:21:37.808Z,4.9
2022-11-15T02:22:46.156Z,4.9
2022-11-15T02:23:54.699Z,4.8
2022-11-15T02:25:03.083Z,4.8
2022-11-15T02:26:11.419Z,4.8
2022-11-15T02:27:19.970Z,5.1
2022-11-15T02:28:28.307Z,5.1
2022-11-15T02:29:36.717Z,5.1
2022-11-15T02:30:45.242Z,5
2022-11-15T02:31:53.613Z,5
2022-11-15T02:33:01.980Z,5
2022-11-15T02:34:10.524Z,4.9
2022-11-15T02:35:18.869Z,4.9
2022-11-15T02:36:27.222Z,4.9
2022-11-15T02:37:35.773Z,6.4
2022-11-15T02:38:44.124Z,6.4
2022-11-15T02:39:52.456Z,6.4
2022-11-15T02:41:01.005Z,4.9
2022-11-15T02:42:09.373Z,4.9
2022-11-15T02:43:17.714Z,4.9
2022-11-15T02:44:26.287Z,5.3
2022-11-15T02:45:34.670Z,5.3
2022-11-15T02:46:42.978Z,5.3
2022-11-15T02:47:51.532Z,6.3
2022-11-15T02:48:59.904Z,6.3
2022-11-15T02:50:08.236Z,6.3
2022-11-15T02:51:16.784Z,5.2
2022-11-15T02:52:25.154Z,5.2
2022-11-15T02:53:33.633Z,5.2
2022-11-15T02:54:42.063Z,5.3
2022-11-15T02:55:50.411Z,5.3
2022-11-15T02:56:58.785Z,5.3
2022-11-15T02:58:07.310Z,6.9
2022-11-15T02:59:15.668Z,6.9
2022-11-15T03:00:24.049Z,6.9
2022-11-15T03:01:32.620Z,5.5
2022-11-15T03:02:40.957Z,5.5
2022-11-15T03:03:49.291Z,5.5
2022-11-15T03:04:57.855Z,5.6
2022-11-15T03:06:06.219Z,5.6
2022-11-15T03:07:14.601Z,5.6
2022-11-15T03:08:23.129Z,5.3
2022-11-15T03:09:31.477Z,5.3
2022-11-15T03:10:39.817Z,5.3
2022-11-15T03:11:48.377Z,6.5
2022-11-15T03:12:56.711Z,6.5
2022-11-15T03:14:05.055Z,6.5
2022-11-15T03:15:13.598Z,6
2022-11-15T03:16:21.974Z,6
2022-11-15T03:17:30.326Z,6
2022-11-15T03:18:38.840Z,6.9
2022-11-15T03:19:47.191Z,6.9
2022-11-15T03:20:55.572Z,6.9
2022-11-15T03:22:04.124Z,5.4
2022-11-15T03:23:12.450Z,5.4
2022-11-15T03:24:24.800Z,5.4
2022-11-15T03:25:29.355Z,5.6
2022-11-15T03:26:37.702Z,5.6
2022-11-15T03:27:46.039Z,5.6
2022-11-15T03:28:54.593Z,6.2
2022-11-15T03:30:02.937Z,6.2
2022-11-15T03:31:11.267Z,6.2
2022-11-15T03:32:19.841Z,5.9
2022-11-15T03:33:28.459Z,5.9
2022-11-15T03:34:36.551Z,5.9
2022-11-15T03:35:45.112Z,5.9
2022-11-15T03:36:53.448Z,5.9
2022-11-15T03:38:01.838Z,5.9
2022-11-15T03:39:10.338Z,7.3
2022-11-15T03:40:18.703Z,7.3
2022-11-15T03:41:27.054Z,7.3
2022-11-15T03:42:35.625Z,5.8
2022-11-15T03:43:43.973Z,5.8
2022-11-15T03:44:52.314Z,5.8
2022-11-15T03:46:00.880Z,5.4
2022-11-15T03:47:09.225Z,5.4
2022-11-15T03:48:17.586Z,5.4
2022-11-15T03:49:26.166Z,5.8
2022-11-15T03:50:34.530Z,5.8
2022-11-15T03:51:42.851Z,5.8
2022-11-15T03:52:51.416Z,5.5
2022-11-15T03:53:59.744Z,5.5
2022-11-15T03:55:08.128Z,5.5
2022-11-15T03:56:16.694Z,5.6
2022-11-15T03:57:25.031Z,5.6
2022-11-15T03:58:33.367Z,5.6
2022-11-15T03:59:41.947Z,5.9
2022-11-15T04:00:50.347Z,5.9
2022-11-15T04:01:58.632Z,5.9
2022-11-15T04:03:07.174Z,5.8
2022-11-15T04:04:15.518Z,5.8
2022-11-15T04:05:23.897Z,5.8
2022-11-15T04:06:32.423Z,6.8
2022-11-15T04:07:40.768Z,6.8
2022-11-15T04:08:49.118Z,6.8
2022-11-15T04:09:57.655Z,7.1
2022-11-15T04:11:06.020Z,7.1
2022-11-15T04:12:14.364Z,7.1
2022-11-15T04:13:22.928Z,7.3
2022-11-15T04:14:31.267Z,7.3
2022-11-15T04:15:39.620Z,7.3
2022-11-15T04:16:48.163Z,6.7
2022-11-15T04:17:56.522Z,6.7
2022-11-15T04:19:04.882Z,6.7
2022-11-15T04:20:13.435Z,5.3
2022-11-15T04:21:21.798Z,5.3
2022-11-15T04:22:30.122Z,5.3
2022-11-15T04:23:38.683Z,5.8
2022-11-15T04:24:47.039Z,5.8
2022-11-15T04:25:55.378Z,5.8
2022-11-15T04:27:03.937Z,7.5
2022-11-15T04:28:12.276Z,7.5
2022-11-15T04:29:20.638Z,7.5
2022-11-15T04:30:29.183Z,6.2
2022-11-15T04:31:37.569Z,6.2
2022-11-15T04:32:45.876Z,6.2
2022-11-15T04:33:54.421Z,6.1
2022-11-15T04:35:02.780Z,6.1
2022-11-15T04:36:11.119Z,6.1
2022-11-15T04:37:19.723Z,6.9
2022-11-15T04:38:28.012Z,6.9
2022-11-15T04:39:36.347Z,6.9
2022-11-15T04:40:44.930Z,8.1
2022-11-15T04:41:53.258Z,8.1
2022-11-15T04:43:03.753Z,8.1
2022-11-15T04:44:10.140Z,6
2022-11-15T04:45:18.483Z,6
2022-11-15T04:46:26.821Z,6
2022-11-15T04:47:35.368Z,7.2
2022-11-15T04:48:43.760Z,7.2
2022-11-15T04:49:52.115Z,7.2
2022-11-15T04:51:00.733Z,5.9
2022-11-15T04:52:09.410Z,5.9
2022-11-15T04:53:17.785Z,5.9
2022-11-15T04:54:26.323Z,7.1
2022-11-15T04:55:34.663Z,7.1
2022-11-15T04:56:43.030Z,7.1
2022-11-15T04:57:51.671Z,6.6
2022-11-15T04:59:00.038Z,6.6
2022-11-15T05:00:08.424Z,6.6
2022-11-15T05:01:16.989Z,4.8
2022-11-15T05:02:25.306Z,4.8
2022-11-15T05:03:34.141Z,4.8
2022-11-15T05:04:42.399Z,9
2022-11-15T05:05:50.740Z,9
2022-11-15T05:06:59.128Z,9
2022-11-15T05:08:07.667Z,9.3
2022-11-15T05:09:16.149Z,9.3
2022-11-15T05:10:24.488Z,9.3
2022-11-15T05:11:33.138Z,12.3
2022-11-15T05:12:41.461Z,12.3
2022-11-15T05:13:49.817Z,12.3
2022-11-15T05:14:58.395Z,11.5
2022-11-15T05:16:06.729Z,11.5
2022-11-15T05:17:15.069Z,11.5
2022-11-15T05:18:24.003Z,8.7
2022-11-15T05:19:31.962Z,8.7
2022-11-15T05:20:40.319Z,8.7
2022-11-15T05:21:48.868Z,8.8
2022-11-15T05:22:57.225Z,8.8
2022-11-15T05:24:05.593Z,8.8
2022-11-15T05:25:14.164Z,7.8
2022-11-15T05:26:22.511Z,7.8
2022-11-15T05:27:30.844Z,7.8
2022-11-15T05:28:39.419Z,8.7
2022-11-15T05:29:47.758Z,8.7
2022-11-15T05:30:56.099Z,8.7
2022-11-15T05:32:04.663Z,6.7
2022-11-15T05:33:13.039Z,6.7
2022-11-15T05:34:21.386Z,6.7
2022-11-15T05:35:29.949Z,6.5
2022-11-15T05:36:38.277Z,6.5
2022-11-15T05:37:46.618Z,6.5
2022-11-15T05:38:55.169Z,6.6
2022-11-15T05:40:03.496Z,6.6
2022-11-15T05:41:11.871Z,6.6
2022-11-15T05:42:20.415Z,5.8
2022-11-15T05:43:28.947Z,5.8
2022-11-15T05:44:37.156Z,5.8
2022-11-15T05:45:45.692Z,6.4
2022-11-15T05:46:54.034Z,6.4
2022-11-15T05:48:02.398Z,6.4
2022-11-15T05:49:10.961Z,6.4
2022-11-15T05:50:19.340Z,6.4
2022-11-15T05:51:27.666Z,6.4
2022-11-15T05:52:36.226Z,6.7
2022-11-15T05:53:44.579Z,6.7
2022-11-15T05:54:52.925Z,6.7
2022-11-15T05:56:01.504Z,6.1
2022-11-15T05:57:09.867Z,6.1
2022-11-15T05:58:18.201Z,6.1
2022-11-15T05:59:26.772Z,6.3
2022-11-15T06:00:35.158Z,6.3
2022-11-15T06:01:43.500Z,6.3
2022-11-15T06:02:52.014Z,6
2022-11-15T06:04:00.369Z,6
2022-11-15T06:05:08.727Z,6
2022-11-15T06:06:17.302Z,7.6
2022-11-15T06:07:25.833Z,7.6
2022-11-15T06:08:33.973Z,7.6
2022-11-15T06:09:42.529Z,5.9
2022-11-15T06:10:50.884Z,5.9
2022-11-15T06:11:59.226Z,5.9
2022-11-15T06:13:07.815Z,5.2
2022-11-15T06:14:16.165Z,5.2
2022-11-15T06:15:24.499Z,5.2
2022-11-15T06:16:33.054Z,5.8
2022-11-15T06:17:41.392Z,5.8
2022-11-15T06:18:49.757Z,5.8
2022-11-15T06:19:58.293Z,5.2
2022-11-15T06:21:06.629Z,5.2
2022-11-15T06:22:14.968Z,5.2
2022-11-15T06:23:25.334Z,4.9
2022-11-15T06:24:31.870Z,4.9
2022-11-15T06:25:40.225Z,4.9
2022-11-15T06:26:48.781Z,5
2022-11-15T06:27:57.108Z,5
2022-11-15T06:29:05.513Z,5
2022-11-15T06:30:14.033Z,4.2
2022-11-15T06:31:22.411Z,4.2
2022-11-15T06:32:30.728Z,4.2
2022-11-15T06:33:39.280Z,4.5
2022-11-15T06:34:47.628Z,4.5
2022-11-15T06:35:55.977Z,4.5
2022-11-15T06:37:04.532Z,4.9
2022-11-15T06:38:12.894Z,4.9
2022-11-15T06:39:21.295Z,4.9
2022-11-15T06:40:29.828Z,4.8
2022-11-15T06:41:38.175Z,4.8
2022-11-15T06:42:46.515Z,4.8
2022-11-15T06:43:55.077Z,4.3
2022-11-15T06:45:05.190Z,4.3
2022-11-15T06:46:14.765Z,4.3
2022-11-15T06:47:23.304Z,3.9
2022-11-15T06:48:31.663Z,3.9
2022-11-15T06:49:40.042Z,3.9
2022-11-15T06:50:48.637Z,5.5
2022-11-15T06:51:58.217Z,5.5
2022-11-15T06:53:06.578Z,5.5
2022-11-15T06:54:15.161Z,3.8
2022-11-15T06:55:24.315Z,3.8
2022-11-15T06:56:35.295Z,3.8
2022-11-15T06:57:46.519Z,4.1
2022-11-15T06:58:54.859Z,4.1
2022-11-15T07:00:04.387Z,4.1
2022-11-15T07:01:13.300Z,2.8
2022-11-15T07:02:21.590Z,2.8
2022-11-15T07:03:30.270Z,2.8
2022-11-15T07:04:40.212Z,3.2
2022-11-15T07:05:49.931Z,3.2
2022-11-15T07:07:00.144Z,3.2
2022-11-15T07:08:07.443Z,2.9
2022-11-15T07:09:15.802Z,2.9
2022-11-15T07:10:24.145Z,2.9
2022-11-15T07:11:32.720Z,3.7
2022-11-15T07:12:41.054Z,3.7
2022-11-15T07:13:49.409Z,3.7
2022-11-15T07:14:57.959Z,2.5
2022-11-15T07:16:06.310Z,2.5
2022-11-15T07:17:14.653Z,2.5
2022-11-15T07:18:23.197Z,2.8
2022-11-15T07:19:31.539Z,2.8
2022-11-15T07:20:39.886Z,2.8
2022-11-15T07:21:48.449Z,3.6
2022-11-15T07:22:56.819Z,3.6
2022-11-15T07:24:05.154Z,3.6
2022-11-15T07:25:13.727Z,3.8
2022-11-15T07:26:22.066Z,3.8
2022-11-15T07:27:30.422Z,3.8
2022-11-15T07:28:38.994Z,3.1
2022-11-15T07:29:47.361Z,3.1
2022-11-15T07:30:55.717Z,3.1
2022-11-15T07:32:04.248Z,3.6
2022-11-15T07:33:12.632Z,3.6
2022-11-15T07:34:20.942Z,3.6
2022-11-15T07:35:29.521Z,3.6
2022-11-15T07:36:37.854Z,3.6
2022-11-15T07:37:46.217Z,3.6
2022-11-15T07:38:54.770Z,3.6
2022-11-15T07:40:03.114Z,3.6
2022-11-15T07:41:11.484Z,3.6
2022-11-15T07:42:20.027Z,3.5
2022-11-15T07:43:28.510Z,3.5
2022-11-15T07:44:36.785Z,3.5
2022-11-15T07:45:45.346Z,3
2022-11-15T07:46:53.680Z,3
2022-11-15T07:48:02.038Z,3
2022-11-15T07:49:10.639Z,4.1
2022-11-15T07:50:18.990Z,4.1
2022-11-15T07:51:27.316Z,4.1
2022-11-15T07:52:35.888Z,3.4
2022-11-15T07:53:44.237Z,3.4
2022-11-15T07:54:52.585Z,3.4
2022-11-15T07:56:01.149Z,3.7
2022-11-15T07:57:09.483Z,3.7
2022-11-15T07:58:17.837Z,3.7
2022-11-15T07:59:26.414Z,2.9
2022-11-15T08:00:34.766Z,2.9
2022-11-15T08:01:43.210Z,2.9
2022-11-15T08:02:51.894Z,3
2022-11-15T08:04:00.014Z,3
2022-11-15T08:05:08.406Z,3
2022-11-15T08:06:16.948Z,3.7
2022-11-15T08:07:25.372Z,3.7
2022-11-15T08:08:33.664Z,3.7
2022-11-15T08:09:42.205Z,3.8
2022-11-15T08:10:50.573Z,3.8
2022-11-15T08:11:58.899Z,3.8
2022-11-15T08:13:07.479Z,2.9
2022-11-15T08:14:15.785Z,2.9
2022-11-15T08:15:24.129Z,2.9
2022-11-15T08:16:32.683Z,4.5
2022-11-15T08:17:41.021Z,4.5
2022-11-15T08:18:49.358Z,4.5
2022-11-15T08:19:58.612Z,2.3
2022-11-15T08:21:06.977Z,2.3
2022-11-15T08:22:15.283Z,2.3
2022-11-15T08:23:23.835Z,3.4
2022-11-15T08:24:32.216Z,3.4
2022-11-15T08:25:40.561Z,3.4
2022-11-15T08:26:49.326Z,2.6
2022-11-15T08:27:58.806Z,2.6
2022-11-15T08:29:07.148Z,2.6
2022-11-15T08:30:15.725Z,3.1
2022-11-15T08:31:24.072Z,3.1
2022-11-15T08:32:32.431Z,3.1
2022-11-15T08:33:40.985Z,2.4
2022-11-15T08:34:49.367Z,2.4
2022-11-15T08:35:57.686Z,2.4
2022-11-15T08:37:06.283Z,3.1
2022-11-15T08:38:14.599Z,3.1
2022-11-15T08:39:22.958Z,3.1
2022-11-15T08:40:31.504Z,3.3
2022-11-15T08:41:39.862Z,3.3
2022-11-15T08:42:48.216Z,3.3
2022-11-15T08:43:56.759Z,3.1
2022-11-15T08:45:05.101Z,3.1
2022-11-15T08:46:13.450Z,3.1
2022-11-15T08:47:22.048Z,3.4
2022-11-15T08:48:30.639Z,3.4
2022-11-15T08:49:38.751Z,3.4
2022-11-15T08:50:47.295Z,3.7
2022-11-15T08:51:55.648Z,3.7
2022-11-15T08:53:04.024Z,3.7
2022-11-15T08:54:12.558Z,3.1
2022-11-15T08:55:24.500Z,3.1
2022-11-15T08:56:29.241Z,3.1
2022-11-15T08:57:37.809Z,2.8
2022-11-15T08:58:46.167Z,2.8
2022-11-15T08:59:54.500Z,2.8
2022-11-15T09:01:03.177Z,3.5
2022-11-15T09:02:11.553Z,3.5
2022-11-15T09:03:19.827Z,3.5
2022-11-15T09:04:28.403Z,3.6
2022-11-15T09:05:36.742Z,3.6
2022-11-15T09:06:45.101Z,3.6
2022-11-15T09:07:53.680Z,4
2022-11-15T09:09:02.069Z,4
2022-11-15T09:10:10.367Z,4
2022-11-15T09:11:18.979Z,3.2
2022-11-15T09:12:27.259Z,3.2
2022-11-15T09:13:35.618Z,3.2
2022-11-15T09:14:44.176Z,8.1
2022-11-15T09:15:52.536Z,8.1
2022-11-15T09:17:00.878Z,8.1
2022-11-15T09:18:09.429Z,3.2
2022-11-15T09:19:17.788Z,3.2
2022-11-15T09:20:26.144Z,3.2
2022-11-15T09:21:34.712Z,3.1
2022-11-15T09:22:43.040Z,3.1
2022-11-15T09:23:51.402Z,3.1
2022-11-15T09:25:00.044Z,3.8
2022-11-15T09:26:08.292Z,3.8
2022-11-15T09:27:16.666Z,3.8
2022-11-15T09:28:25.213Z,3.9
2022-11-15T09:29:33.667Z,3.9
2022-11-15T09:30:41.978Z,3.9
2022-11-15T09:31:50.531Z,3.3
2022-11-15T09:32:58.874Z,3.3
2022-11-15T09:34:07.229Z,3.3
2022-11-15T09:35:15.776Z,2.1
2022-11-15T09:36:24.117Z,2.1
2022-11-15T09:37:32.456Z,2.1
2022-11-15T09:38:41.028Z,2.9
2022-11-15T09:39:49.385Z,2.9
2022-11-15T09:40:57.777Z,2.9
2022-11-15T09:42:06.293Z,2.5
2022-11-15T09:43:14.641Z,2.5
2022-11-15T09:44:25.660Z,2.5
2022-11-15T09:45:31.526Z,2.6
2022-11-15T09:46:39.926Z,2.6
2022-11-15T09:47:48.257Z,2.6
2022-11-15T09:48:56.825Z,2.6
2022-11-15T09:50:05.187Z,2.6
2022-11-15T09:51:13.530Z,2.6
2022-11-15T09:52:22.068Z,2.3
2022-11-15T09:53:51.035Z,2.3
2022-11-15T09:54:55.405Z,2.3
2022-11-15T09:55:47.337Z,2.9
2022-11-15T09:56:55.721Z,2.9
2022-11-15T09:58:04.038Z,2.9
2022-11-15T09:59:12.601Z,2.5
2022-11-15T10:01:29.345Z,2.5
2022-11-15T10:02:37.875Z,4.1
2022-11-15T10:03:46.236Z,4.1
2022-11-15T10:04:54.616Z,4.1
2022-11-15T10:06:03.139Z,2.3
2022-11-15T10:07:11.542Z,2.3
2022-11-15T10:08:19.825Z,2.3
2022-11-15T10:09:28.398Z,3.4
2022-11-15T10:10:36.729Z,3.4
2022-11-15T10:11:45.068Z,3.4
2022-11-15T10:12:53.655Z,3.9
2022-11-15T10:14:01.971Z,3.9
2022-11-15T10:15:10.326Z,3.9
2022-11-15T10:16:18.920Z,3.4
2022-11-15T10:17:27.237Z,3.4
2022-11-15T10:18:35.600Z,3.4
2022-11-15T10:19:44.163Z,2.9
2022-11-15T10:20:52.498Z,2.9
2022-11-15T10:22:00.846Z,2.9
2022-11-15T10:23:09.399Z,5.2
2022-11-15T10:24:17.756Z,5.2
2022-11-15T10:25:26.107Z,5.2
2022-11-15T10:26:34.646Z,4.2
2022-11-15T10:27:42.990Z,4.2
2022-11-15T10:28:51.409Z,4.2
2022-11-15T10:29:59.936Z,3.4
2022-11-15T10:31:10.953Z,3.4
2022-11-15T10:32:16.632Z,3.4
2022-11-15T10:33:25.222Z,3.1
2022-11-15T10:34:33.574Z,3.1
2022-11-15T10:35:41.942Z,3.1
2022-11-15T10:36:50.621Z,2.9
2022-11-15T10:37:58.865Z,2.9
2022-11-15T10:39:07.210Z,2.9
2022-11-15T10:40:15.766Z,3.8
2022-11-15T10:41:24.126Z,3.8
2022-11-15T10:42:32.464Z,3.8
2022-11-15T10:43:41.050Z,2.5
2022-11-15T10:44:49.407Z,2.5
2022-11-15T10:45:57.728Z,2.5
2022-11-15T10:47:06.265Z,3
2022-11-15T10:48:14.613Z,3
2022-11-15T10:49:22.993Z,3
2022-11-15T10:50:31.528Z,3.7
2022-11-15T10:51:39.892Z,3.7
2022-11-15T10:52:48.205Z,3.7
2022-11-15T10:53:56.763Z,2.4
2022-11-15T10:55:05.105Z,2.4
2022-11-15T10:56:13.441Z,2.4
2022-11-15T10:57:21.989Z,2.5
2022-11-15T10:58:30.565Z,2.5
2022-11-15T10:59:39.111Z,2.5
2022-11-15T11:00:47.512Z,2.3
2022-11-15T11:01:55.573Z,2.3
2022-11-15T11:03:03.931Z,2.3
2022-11-15T11:04:12.474Z,2.2
2022-11-15T11:05:20.840Z,2.2
2022-11-15T11:06:29.161Z,2.2
2022-11-15T11:07:37.795Z,3
2022-11-15T11:08:46.057Z,3
2022-11-15T11:09:54.455Z,3
2022-11-15T11:11:03.885Z,3.8
2022-11-15T11:12:11.348Z,3.8
2022-11-15T11:13:19.675Z,3.8
2022-11-15T11:14:28.231Z,2.1
2022-11-15T11:15:36.586Z,2.1
2022-11-15T11:16:45.062Z,2.1
2022-11-15T11:17:53.487Z,3.2
2022-11-15T11:19:01.850Z,3.2
2022-11-15T11:20:10.197Z,3.2
2022-11-15T11:21:18.763Z,3.4
2022-11-15T11:22:27.141Z,3.4
2022-11-15T11:23:35.479Z,3.4
2022-11-15T11:24:44.043Z,3
2022-11-15T11:25:52.394Z,3
2022-11-15T11:27:00.743Z,3
2022-11-15T11:28:09.288Z,2.9
2022-11-15T11:29:17.633Z,2.9
2022-11-15T11:30:26.005Z,2.9
2022-11-15T11:31:34.586Z,3.1
2022-11-15T11:32:42.933Z,3.1
2022-11-15T11:33:51.247Z,3.1
2022-11-15T11:34:59.803Z,2.5
2022-11-15T11:36:08.149Z,2.5
2022-11-15T11:37:16.519Z,2.5
2022-11-15T11:38:25.060Z,3.2
2022-11-15T11:39:33.407Z,3.2
2022-11-15T11:40:41.765Z,3.2
2022-11-15T11:41:50.323Z,4.1
2022-11-15T11:42:58.674Z,4.1
2022-11-15T11:44:07.030Z,4.1
2022-11-15T11:45:15.567Z,3.5
2022-11-15T11:46:23.937Z,3.5
2022-11-15T11:47:32.266Z,3.5
2022-11-15T11:48:40.840Z,3.9
2022-11-15T11:49:49.165Z,3.9
2022-11-15T11:50:57.514Z,3.9
2022-11-15T11:52:06.079Z,4.7
2022-11-15T11:53:14.422Z,4.7
2022-11-15T11:54:22.767Z,4.7
2022-11-15T11:55:31.368Z,2.2
2022-11-15T11:56:39.691Z,2.2
2022-11-15T11:57:48.025Z,2.2
2022-11-15T11:58:56.592Z,3.4
2022-11-15T12:00:04.964Z,3.4
2022-11-15T12:01:13.298Z,3.4
2022-11-15T12:02:21.945Z,2.7
2022-11-15T12:03:30.203Z,2.7
2022-11-15T12:04:38.584Z,2.7
2022-11-15T12:05:47.150Z,2.9
2022-11-15T12:06:55.523Z,2.9
2022-11-15T12:08:04.383Z,2.9
2022-11-15T12:09:12.376Z,2.4
2022-11-15T12:10:20.732Z,2.4
2022-11-15T12:11:29.110Z,2.4
2022-11-15T12:12:37.667Z,2.1
2022-11-15T12:13:46.056Z,2.1
2022-11-15T12:14:54.359Z,2.1
2022-11-15T12:16:06.064Z,2.9
2022-11-15T12:17:11.263Z,2.9
2022-11-15T12:18:19.607Z,2.9
2022-11-15T12:19:28.181Z,2.6
2022-11-15T12:20:36.530Z,2.6
2022-11-15T12:21:44.872Z,2.6
2022-11-15T12:22:53.414Z,3.5
2022-11-15T12:24:01.779Z,3.5
2022-11-15T12:25:10.149Z,3.5
2022-11-15T12:26:18.722Z,3.2
2022-11-15T12:27:27.118Z,3.2
2022-11-15T12:28:35.632Z,3.2
2022-11-15T12:29:43.938Z,2.6
2022-11-15T12:30:52.300Z,2.6
2022-11-15T12:32:00.695Z,2.6
2022-11-15T12:33:09.252Z,3.6
2022-11-15T12:34:17.647Z,3.6
2022-11-15T12:35:25.972Z,3.6
2022-11-15T12:36:34.586Z,1.8
2022-11-15T12:37:42.933Z,1.8
2022-11-15T12:38:51.260Z,1.8
2022-11-15T12:40:03.654Z,2.8
2022-11-15T12:41:08.202Z,2.8
2022-11-15T12:42:16.531Z,2.8
2022-11-15T12:43:25.096Z,2.8
2022-11-15T12:44:33.438Z,2.8
2022-11-15T12:45:41.799Z,2.8
2022-11-15T12:46:50.404Z,4.4
2022-11-15T12:47:58.732Z,4.4
2022-11-15T12:49:07.109Z,4.4
2022-11-15T12:50:15.650Z,3.8
2022-11-15T12:51:24.019Z,3.8
2022-11-15T12:52:32.381Z,3.8
2022-11-15T12:53:40.920Z,2.2
2022-11-15T12:54:49.280Z,2.2
2022-11-15T12:55:57.679Z,2.2
2022-11-15T12:57:06.261Z,2.3
2022-11-15T12:58:14.630Z,2.3
2022-11-15T12:59:23.105Z,2.3
2022-11-15T13:00:31.672Z,3.2
2022-11-15T13:01:40.075Z,3.2
2022-11-15T13:02:48.357Z,3.2
2022-11-15T13:03:56.916Z,3.1
2022-11-15T13:05:05.275Z,3.1
2022-11-15T13:06:13.617Z,3.1
2022-11-15T13:07:22.237Z,3.1
2022-11-15T13:08:30.776Z,3.1
2022-11-15T13:09:38.879Z,3.1
2022-11-15T13:10:47.443Z,3.2
2022-11-15T13:11:55.824Z,3.2
2022-11-15T13:13:04.221Z,3.2
2022-11-15T13:14:12.782Z,2.5
2022-11-15T13:15:21.111Z,2.5
2022-11-15T13:16:29.483Z,2.5
2022-11-15T13:17:38.034Z,4.3
2022-11-15T13:18:46.363Z,4.3
2022-11-15T13:19:54.711Z,4.3
2022-11-15T13:21:03.335Z,2.7
2022-11-15T13:22:11.640Z,2.7
2022-11-15T13:23:19.973Z,2.7
2022-11-15T13:24:28.674Z,3.1
2022-11-15T13:25:37.012Z,3.1
2022-11-15T13:26:45.343Z,3.1
2022-11-15T13:27:53.886Z,4
2022-11-15T13:29:02.227Z,4
2022-11-15T13:30:10.553Z,4
2022-11-15T13:31:19.144Z,4.5
2022-11-15T13:32:27.482Z,4.5
2022-11-15T13:33:36.524Z,4.5
2022-11-15T13:34:51.314Z,5.5
2022-11-15T13:35:52.733Z,5.5
2022-11-15T13:37:01.072Z,5.5
2022-11-15T13:38:09.619Z,3.3
2022-11-15T13:39:17.967Z,3.3
2022-11-15T13:40:26.331Z,3.3
2022-11-15T13:41:34.877Z,3.8
2022-11-15T13:42:45.822Z,3.8
2022-11-15T13:43:51.545Z,3.8
2022-11-15T13:45:00.104Z,3.8
2022-11-15T13:46:08.430Z,3.8
2022-11-15T13:47:16.788Z,3.8
2022-11-15T13:48:25.326Z,2.5
2022-11-15T13:49:33.670Z,2.5
2022-11-15T13:50:42.019Z,2.5
2022-11-15T13:51:50.574Z,3.6
2022-11-15T13:52:58.920Z,3.6
2022-11-15T13:54:07.291Z,3.6
2022-11-15T13:55:15.815Z,3.6
2022-11-15T13:56:24.194Z,3.6
2022-11-15T13:57:32.498Z,3.6
2022-11-15T13:58:41.052Z,2.8
2022-11-15T13:59:49.389Z,2.8
2022-11-15T14:00:57.752Z,2.8
2022-11-15T14:02:06.347Z,3.8
2022-11-15T14:03:14.665Z,3.8
2022-11-15T14:04:23.010Z,3.8
2022-11-15T14:05:31.548Z,3.8
2022-11-15T14:06:39.910Z,3.8
2022-11-15T14:07:48.246Z,3.8
2022-11-15T14:08:56.811Z,2.9
2022-11-15T14:10:05.124Z,2.9
2022-11-15T14:11:13.472Z,2.9
2022-11-15T14:12:22.121Z,4.5
2022-11-15T14:13:30.371Z,4.5
2022-11-15T14:14:38.710Z,4.5
2022-11-15T14:15:47.265Z,4
2022-11-15T14:16:55.621Z,4
2022-11-15T14:18:03.949Z,4
2022-11-15T14:19:12.498Z,3.7
2022-11-15T14:20:20.843Z,3.7
2022-11-15T14:21:29.180Z,3.7
2022-11-15T14:22:37.734Z,5.3
2022-11-15T14:23:46.072Z,5.3
2022-11-15T14:24:54.410Z,5.3
2022-11-15T14:26:05.280Z,4.9
2022-11-15T14:27:11.299Z,4.9
2022-11-15T14:28:19.665Z,4.9
2022-11-15T14:29:28.191Z,4.8
2022-11-15T14:30:36.532Z,4.8
2022-11-15T15:04:19.845Z,0
2022-11-15T15:05:28.165Z,0
2022-11-15T15:06:36.569Z,0
2022-11-15T15:07:45.175Z,6.1
2022-11-15T15:08:53.456Z,6.1
2022-11-15T15:10:32.839Z,6.1
2022-11-15T15:11:10.377Z,5.8
2022-11-15T15:12:18.734Z,5.8
2022-11-15T15:13:27.094Z,5.8
2022-11-15T15:14:35.646Z,5.2
2022-11-15T15:15:44.006Z,5.2
2022-11-15T15:16:52.346Z,5.2
2022-11-15T15:18:00.943Z,5.4
2022-11-15T15:19:09.282Z,5.4
2022-11-15T15:20:17.661Z,5.4
2022-11-15T15:21:26.200Z,7.4
2022-11-15T15:22:34.563Z,7.4
2022-11-15T15:23:42.922Z,7.4
2022-11-15T15:24:51.496Z,7.9
2022-11-15T15:25:59.861Z,7.9
2022-11-15T15:27:08.200Z,7.9
2022-11-15T15:28:16.778Z,5.7
2022-11-15T15:29:25.159Z,5.7
2022-11-15T15:30:33.503Z,5.7
2022-11-15T15:31:42.061Z,7.7
2022-11-15T15:32:50.424Z,7.7
2022-11-15T15:33:58.790Z,7.7
2022-11-15T15:35:07.348Z,8
2022-11-15T15:36:15.731Z,8
2022-11-15T15:37:24.061Z,8
2022-11-15T15:38:32.840Z,8.2
2022-11-15T15:39:40.996Z,8.2
2022-11-15T15:40:51.474Z,8.2
2022-11-15T15:41:57.938Z,7
2022-11-15T15:43:06.280Z,7
2022-11-15T15:44:14.647Z,7
2022-11-15T15:45:23.209Z,9.2
2022-11-15T15:46:31.563Z,9.2
2022-11-15T15:47:39.946Z,9.2
2022-11-15T15:48:48.510Z,8.5
2022-11-15T15:49:56.859Z,8.5
2022-11-15T15:51:11.265Z,8.5
2022-11-15T15:52:13.785Z,7.9
2022-11-15T15:53:22.130Z,7.9
2022-11-15T15:54:30.496Z,7.9
2022-11-15T15:55:39.060Z,9.8
2022-11-15T15:56:49.989Z,9.8
2022-11-15T15:57:55.802Z,9.8
2022-11-15T15:59:04.363Z,8
2022-11-15T16:00:12.712Z,8
2022-11-15T16:01:21.129Z,8
2022-11-15T16:02:29.628Z,7.8
2022-11-15T16:03:37.997Z,7.8
2022-11-15T16:04:46.356Z,7.8
2022-11-15T16:05:54.907Z,8
2022-11-15T16:07:03.395Z,8
2022-11-15T16:08:11.671Z,8
2022-11-15T16:09:20.709Z,7.8
2022-11-15T16:10:28.571Z,7.8
2022-11-15T16:11:36.927Z,7.8
2022-11-15T16:12:45.485Z,8.2
2022-11-15T16:13:53.853Z,8.2
2022-11-15T16:15:02.213Z,8.2
2022-11-15T16:16:10.786Z,9.1
2022-11-15T16:17:19.143Z,9.1
2022-11-15T16:18:27.559Z,9.1
2022-11-15T16:19:36.113Z,9.8
2022-11-15T16:20:44.468Z,9.8
2022-11-15T16:21:52.813Z,9.8